sensor_id;sensor_type;location;lat;lon;timestamp;pressure;altitude;pressure_sealevel;temperature;humidity
42003;BME280;27693;50.506;30.832;2023-12-07T00:00:03;100690.14;;;-5.86;91.99
42003;BME280;27693;50.506;30.832;2023-12-07T00:01:06;100680.94;;;-5.84;92.59
42003;BME280;27693;50.506;30.832;2023-12-07T00:02:11;100679.42;;;-5.79;93.32
42003;BME280;27693;50.506;30.832;2023-12-07T00:03:22;100671.98;;;-5.74;92.80
42003;BME280;27693;50.506;30.832;2023-12-07T00:04:25;100682.41;;;-5.89;92.77
42003;BME280;27693;50.506;30.832;2023-12-07T00:05:27;100686.59;;;-5.91;92.82
42003;BME280;27693;50.506;30.832;2023-12-07T00:06:30;100683.88;;;-5.96;92.10
42003;BME280;27693;50.506;30.832;2023-12-07T00:07:33;100684.68;;;-5.97;92.71
42003;BME280;27693;50.506;30.832;2023-12-07T00:08:35;100685.47;;;-6.00;93.49
42003;BME280;27693;50.506;30.832;2023-12-07T00:09:37;100679.95;;;-6.12;92.55
42003;BME280;27693;50.506;30.832;2023-12-07T00:10:40;100676.62;;;-6.11;93.35
42003;BME280;27693;50.506;30.832;2023-12-07T00:11:43;100683.38;;;-6.10;93.61
42003;BME280;27693;50.506;30.832;2023-12-07T00:12:45;100683.11;;;-6.18;93.02
42003;BME280;27693;50.506;30.832;2023-12-07T00:13:47;100695.15;;;-6.12;93.62
42003;BME280;27693;50.506;30.832;2023-12-07T00:14:50;100683.46;;;-6.08;94.15
42003;BME280;27693;50.506;30.832;2023-12-07T00:15:53;100695.47;;;-6.03;94.68
42003;BME280;27693;50.506;30.832;2023-12-07T00:16:55;100696.98;;;-6.08;94.07
42003;BME280;27693;50.506;30.832;2023-12-07T00:17:58;100697.91;;;-6.06;93.69
42003;BME280;27693;50.506;30.832;2023-12-07T00:19:02;100691.34;;;-6.01;93.81
42003;BME280;27693;50.506;30.832;2023-12-07T00:20:05;100691.58;;;-5.93;93.81
42003;BME280;27693;50.506;30.832;2023-12-07T00:21:08;100694.06;;;-5.95;93.18
42003;BME280;27693;50.506;30.832;2023-12-07T00:22:11;100689.13;;;-5.91;93.53
42003;BME280;27693;50.506;30.832;2023-12-07T00:23:14;100697.75;;;-5.86;93.60
42003;BME280;27693;50.506;30.832;2023-12-07T00:24:17;100695.92;;;-5.90;92.94
42003;BME280;27693;50.506;30.832;2023-12-07T00:25:21;100691.08;;;-5.84;93.15
42003;BME280;27693;50.506;30.832;2023-12-07T00:26:24;100695.16;;;-5.88;93.13
42003;BME280;27693;50.506;30.832;2023-12-07T00:27:26;100694.19;;;-5.91;92.81
42003;BME280;27693;50.506;30.832;2023-12-07T00:28:28;100693.31;;;-5.92;92.64
42003;BME280;27693;50.506;30.832;2023-12-07T00:29:30;100693.88;;;-6.01;91.97
42003;BME280;27693;50.506;30.832;2023-12-07T00:30:33;100696.27;;;-6.04;92.16
42003;BME280;27693;50.506;30.832;2023-12-07T00:31:35;100695.20;;;-6.11;91.54
42003;BME280;27693;50.506;30.832;2023-12-07T00:32:38;100697.50;;;-6.17;91.83
42003;BME280;27693;50.506;30.832;2023-12-07T00:33:40;100695.31;;;-6.30;91.55
42003;BME280;27693;50.506;30.832;2023-12-07T00:34:44;100701.13;;;-6.33;91.89
42003;BME280;27693;50.506;30.832;2023-12-07T00:35:48;100702.59;;;-6.38;91.69
42003;BME280;27693;50.506;30.832;2023-12-07T00:36:53;100702.30;;;-6.46;91.80
42003;BME280;27693;50.506;30.832;2023-12-07T00:37:56;100690.50;;;-6.45;92.26
42003;BME280;27693;50.506;30.832;2023-12-07T00:39:01;100690.27;;;-6.51;92.04
42003;BME280;27693;50.506;30.832;2023-12-07T00:40:06;100701.51;;;-6.45;92.74
42003;BME280;27693;50.506;30.832;2023-12-07T00:41:11;100693.22;;;-6.40;93.36
42003;BME280;27693;50.506;30.832;2023-12-07T00:42:13;100703.58;;;-6.34;93.65
42003;BME280;27693;50.506;30.832;2023-12-07T00:43:16;100697.95;;;-6.27;94.28
42003;BME280;27693;50.506;30.832;2023-12-07T00:44:19;100686.39;;;-6.20;94.67
42003;BME280;27693;50.506;30.832;2023-12-07T00:45:22;100693.29;;;-6.16;94.35
42003;BME280;27693;50.506;30.832;2023-12-07T00:46:26;100695.02;;;-6.15;94.48
42003;BME280;27693;50.506;30.832;2023-12-07T00:47:29;100693.52;;;-6.10;94.62
42003;BME280;27693;50.506;30.832;2023-12-07T00:48:32;100680.58;;;-6.18;93.57
42003;BME280;27693;50.506;30.832;2023-12-07T00:49:40;100680.58;;;-6.18;93.57
42003;BME280;27693;50.506;30.832;2023-12-07T00:50:43;100691.55;;;-6.17;93.35
42003;BME280;27693;50.506;30.832;2023-12-07T00:51:46;100693.81;;;-6.25;92.92
42003;BME280;27693;50.506;30.832;2023-12-07T00:52:48;100693.81;;;-6.25;93.11
42003;BME280;27693;50.506;30.832;2023-12-07T00:53:55;100693.94;;;-6.22;93.46
42003;BME280;27693;50.506;30.832;2023-12-07T00:54:57;100693.94;;;-6.22;93.50
42003;BME280;27693;50.506;30.832;2023-12-07T00:56:03;100696.62;;;-6.17;94.21
42003;BME280;27693;50.506;30.832;2023-12-07T00:57:06;100696.75;;;-6.14;94.37
42003;BME280;27693;50.506;30.832;2023-12-07T00:58:12;100702.80;;;-6.11;94.12
42003;BME280;27693;50.506;30.832;2023-12-07T00:59:17;100701.95;;;-6.11;93.80
42003;BME280;27693;50.506;30.832;2023-12-07T01:00:21;100697.69;;;-6.12;93.44
42003;BME280;27693;50.506;30.832;2023-12-07T01:01:27;100705.16;;;-6.15;92.90
42003;BME280;27693;50.506;30.832;2023-12-07T01:02:30;100698.48;;;-6.13;92.63
42003;BME280;27693;50.506;30.832;2023-12-07T01:03:33;100696.98;;;-6.08;93.28
42003;BME280;27693;50.506;30.832;2023-12-07T01:04:37;100690.41;;;-6.03;93.28
42003;BME280;27693;50.506;30.832;2023-12-07T01:05:42;100690.59;;;-5.97;93.82
42003;BME280;27693;50.506;30.832;2023-12-07T01:06:45;100686.41;;;-5.96;93.23
42003;BME280;27693;50.506;30.832;2023-12-07T01:07:47;100684.54;;;-6.02;93.26
42003;BME280;27693;50.506;30.832;2023-12-07T01:08:50;100692.89;;;-6.04;92.60
42003;BME280;27693;50.506;30.832;2023-12-07T01:09:55;100683.52;;;-6.07;92.57
42003;BME280;27693;50.506;30.832;2023-12-07T01:10:59;100676.66;;;-6.10;93.05
42003;BME280;27693;50.506;30.832;2023-12-07T01:12:05;100682.66;;;-6.07;92.90
42003;BME280;27693;50.506;30.832;2023-12-07T01:13:07;100678.54;;;-6.04;93.18
42003;BME280;27693;50.506;30.832;2023-12-07T01:14:09;100676.94;;;-6.02;93.50
42003;BME280;27693;50.506;30.832;2023-12-07T01:15:13;100685.53;;;-5.97;93.78
42003;BME280;27693;50.506;30.832;2023-12-07T01:16:15;100672.19;;;-5.92;94.42
42003;BME280;27693;50.506;30.832;2023-12-07T01:17:17;100677.34;;;-5.89;94.15
42003;BME280;27693;50.506;30.832;2023-12-07T01:18:21;100674.01;;;-5.88;94.15
42003;BME280;27693;50.506;30.832;2023-12-07T01:19:24;100669.65;;;-5.92;93.65
42003;BME280;27693;50.506;30.832;2023-12-07T01:20:27;100680.81;;;-5.87;94.32
42003;BME280;27693;50.506;30.832;2023-12-07T01:21:32;100670.89;;;-5.81;94.54
42003;BME280;27693;50.506;30.832;2023-12-07T01:22:34;100671.11;;;-5.75;94.24
42003;BME280;27693;50.506;30.832;2023-12-07T01:23:37;100670.43;;;-5.71;94.45
42003;BME280;27693;50.506;30.832;2023-12-07T01:24:39;100670.21;;;-5.77;93.59
42003;BME280;27693;50.506;30.832;2023-12-07T01:25:42;100670.09;;;-5.80;93.31
42003;BME280;27693;50.506;30.832;2023-12-07T01:26:44;100663.33;;;-5.80;93.41
42003;BME280;27693;50.506;30.832;2023-12-07T01:27:47;100671.86;;;-5.78;93.60
42003;BME280;27693;50.506;30.832;2023-12-07T01:28:52;100678.98;;;-5.91;92.57
42003;BME280;27693;50.506;30.832;2023-12-07T01:29:55;100673.79;;;-5.95;92.06
42003;BME280;27693;50.506;30.832;2023-12-07T01:30:57;100667.55;;;-6.04;92.07
42003;BME280;27693;50.506;30.832;2023-12-07T01:32:00;100663.12;;;-6.10;92.09
42003;BME280;27693;50.506;30.832;2023-12-07T01:33:02;100665.65;;;-6.10;92.96
42003;BME280;27693;50.506;30.832;2023-12-07T01:34:06;100663.02;;;-6.13;93.02
42003;BME280;27693;50.506;30.832;2023-12-07T01:35:09;100662.80;;;-6.19;93.07
42003;BME280;27693;50.506;30.832;2023-12-07T01:36:13;100671.06;;;-6.23;92.96
42003;BME280;27693;50.506;30.832;2023-12-07T01:37:15;100669.94;;;-6.32;92.76
42003;BME280;27693;50.506;30.832;2023-12-07T01:38:17;100670.61;;;-6.36;92.58
42003;BME280;27693;50.506;30.832;2023-12-07T01:39:22;100665.44;;;-6.39;92.94
42003;BME280;27693;50.506;30.832;2023-12-07T01:40:28;100670.38;;;-6.42;92.84
42003;BME280;27693;50.506;30.832;2023-12-07T01:41:30;100657.94;;;-6.36;93.59
42003;BME280;27693;50.506;30.832;2023-12-07T01:42:33;100666.70;;;-6.28;94.54
42003;BME280;27693;50.506;30.832;2023-12-07T01:43:35;100669.00;;;-6.34;93.55
42003;BME280;27693;50.506;30.832;2023-12-07T01:44:38;100667.41;;;-6.32;93.86
42003;BME280;27693;50.506;30.832;2023-12-07T01:45:41;100676.93;;;-6.24;94.42
42003;BME280;27693;50.506;30.832;2023-12-07T01:46:46;100671.81;;;-6.26;93.69
42003;BME280;27693;50.506;30.832;2023-12-07T01:47:51;100672.80;;;-6.22;93.87
42003;BME280;27693;50.506;30.832;2023-12-07T01:49:04;100676.03;;;-6.27;93.17
42003;BME280;27693;50.506;30.832;2023-12-07T01:50:10;100671.20;;;-6.20;93.91
42003;BME280;27693;50.506;30.832;2023-12-07T01:51:16;100671.30;;;-6.17;94.43
42003;BME280;27693;50.506;30.832;2023-12-07T01:52:22;100673.73;;;-6.20;94.32
42003;BME280;27693;50.506;30.832;2023-12-07T01:53:26;100672.00;;;-6.21;94.30
42003;BME280;27693;50.506;30.832;2023-12-07T01:54:31;100663.14;;;-6.33;93.25
42003;BME280;27693;50.506;30.832;2023-12-07T01:55:36;100677.36;;;-6.36;93.30
42003;BME280;27693;50.506;30.832;2023-12-07T01:56:39;100666.70;;;-6.28;94.25
42003;BME280;27693;50.506;30.832;2023-12-07T01:57:43;100666.80;;;-6.24;94.57
42003;BME280;27693;50.506;30.832;2023-12-07T01:58:46;100677.19;;;-6.18;94.82
42003;BME280;27693;50.506;30.832;2023-12-07T01:59:49;100677.19;;;-6.18;94.44
42003;BME280;27693;50.506;30.832;2023-12-07T02:00:52;100676.36;;;-6.17;93.80
42003;BME280;27693;50.506;30.832;2023-12-07T02:01:55;100677.34;;;-6.14;94.33
42003;BME280;27693;50.506;30.832;2023-12-07T02:02:58;100674.98;;;-6.09;94.57
42003;BME280;27693;50.506;30.832;2023-12-07T02:04:01;100673.02;;;-6.16;93.54
42003;BME280;27693;50.506;30.832;2023-12-07T02:05:05;100675.78;;;-6.10;93.51
42003;BME280;27693;50.506;30.832;2023-12-07T02:06:08;100669.69;;;-6.15;93.15
42003;BME280;27693;50.506;30.832;2023-12-07T02:07:10;100671.20;;;-6.20;92.86
42003;BME280;27693;50.506;30.832;2023-12-07T02:08:13;100676.03;;;-6.27;92.41
42003;BME280;27693;50.506;30.832;2023-12-07T02:09:16;100667.50;;;-6.29;92.88
42003;BME280;27693;50.506;30.832;2023-12-07T02:10:19;100669.98;;;-6.30;92.92
42003;BME280;27693;50.506;30.832;2023-12-07T02:11:22;100664.04;;;-6.31;92.85
42003;BME280;27693;50.506;30.832;2023-12-07T02:12:24;100667.63;;;-6.26;93.63
42003;BME280;27693;50.506;30.832;2023-12-07T02:13:27;100665.91;;;-6.27;93.68
42003;BME280;27693;50.506;30.832;2023-12-07T02:14:30;100665.77;;;-6.30;93.53
42003;BME280;27693;50.506;30.832;2023-12-07T02:15:35;100680.78;;;-6.34;92.90
42003;BME280;27693;50.506;30.832;2023-12-07T02:16:48;100670.38;;;-6.42;92.96
42003;BME280;27693;50.506;30.832;2023-12-07T02:18:56;100667.80;;;-6.44;93.13
42003;BME280;27693;50.506;30.832;2023-12-07T02:21:28;100677.84;;;-6.45;92.61
42003;BME280;27693;50.506;30.832;2023-12-07T02:22:37;100677.03;;;-6.44;92.52
42003;BME280;27693;50.506;30.832;2023-12-07T02:23:40;100680.50;;;-6.42;92.73
42003;BME280;27693;50.506;30.832;2023-12-07T02:24:48;100679.14;;;-6.34;92.89
42003;BME280;27693;50.506;30.832;2023-12-07T02:26:20;100677.41;;;-6.35;92.22
42003;BME280;27693;50.506;30.832;2023-12-07T02:27:43;100677.53;;;-6.32;92.30
42003;BME280;27693;50.506;30.832;2023-12-07T02:28:47;100678.38;;;-6.31;92.49
42003;BME280;27693;50.506;30.832;2023-12-07T02:29:49;100672.86;;;-6.44;91.54
42003;BME280;27693;50.506;30.832;2023-12-07T02:30:52;100674.50;;;-6.44;91.89
42003;BME280;27693;50.506;30.832;2023-12-07T02:31:54;100670.14;;;-6.48;91.88
42003;BME280;27693;50.506;30.832;2023-12-07T02:32:57;100665.88;;;-6.49;91.67
42003;BME280;27693;50.506;30.832;2023-12-07T02:34:01;100672.67;;;-6.48;91.77
42003;BME280;27693;50.506;30.832;2023-12-07T02:35:05;100670.24;;;-6.45;92.01
42003;BME280;27693;50.506;30.832;2023-12-07T02:36:09;100670.99;;;-6.48;91.65
42003;BME280;27693;50.506;30.832;2023-12-07T02:37:13;100675.20;;;-6.48;91.98
42003;BME280;27693;50.506;30.832;2023-12-07T02:38:16;100678.53;;;-6.49;91.82
42003;BME280;27693;50.506;30.832;2023-12-07T02:39:22;100678.44;;;-6.52;91.93
42003;BME280;27693;50.506;30.832;2023-12-07T02:40:26;100676.94;;;-6.47;92.21
42003;BME280;27693;50.506;30.832;2023-12-07T02:41:31;100676.14;;;-6.46;92.21
42003;BME280;27693;50.506;30.832;2023-12-07T02:42:38;100678.77;;;-6.43;92.56
42003;BME280;27693;50.506;30.832;2023-12-07T02:43:45;100676.94;;;-6.47;92.09
42003;BME280;27693;50.506;30.832;2023-12-07T02:44:49;100672.62;;;-6.50;92.18
42003;BME280;27693;50.506;30.832;2023-12-07T02:45:52;100672.62;;;-6.50;92.18
42003;BME280;27693;50.506;30.832;2023-12-07T02:46:55;100678.53;;;-6.49;92.30
42003;BME280;27693;50.506;30.832;2023-12-07T02:47:58;100680.14;;;-6.51;92.48
42003;BME280;27693;50.506;30.832;2023-12-07T02:49:02;100677.92;;;-6.44;92.89
42003;BME280;27693;50.506;30.832;2023-12-07T02:50:06;100680.50;;;-6.42;92.56
42003;BME280;27693;50.506;30.832;2023-12-07T02:51:09;100675.20;;;-6.48;92.16
42003;BME280;27693;50.506;30.832;2023-12-07T02:52:11;100688.80;;;-6.46;92.20
42003;BME280;27693;50.506;30.832;2023-12-07T02:53:16;100677.92;;;-6.44;92.08
42003;BME280;27693;50.506;30.832;2023-12-07T02:54:19;100677.22;;;-6.39;92.40
42003;BME280;27693;50.506;30.832;2023-12-07T02:55:22;100680.73;;;-6.36;92.39
42003;BME280;27693;50.506;30.832;2023-12-07T02:56:24;100673.94;;;-6.37;92.09
42003;BME280;27693;50.506;30.832;2023-12-07T02:57:29;100673.70;;;-6.43;91.48
42003;BME280;27693;50.506;30.832;2023-12-07T02:58:31;100680.27;;;-6.48;91.64
42003;BME280;27693;50.506;30.832;2023-12-07T02:59:34;100678.59;;;-6.48;92.27
42003;BME280;27693;50.506;30.832;2023-12-07T03:00:40;100676.05;;;-6.48;91.98
42003;BME280;27693;50.506;30.832;2023-12-07T03:01:44;100668.41;;;-6.49;92.26
42003;BME280;27693;50.506;30.832;2023-12-07T03:02:49;100680.31;;;-6.47;92.63
42003;BME280;27693;50.506;30.832;2023-12-07T03:03:53;100677.03;;;-6.44;92.91
42003;BME280;27693;50.506;30.832;2023-12-07T03:04:55;100671.13;;;-6.45;92.35
42003;BME280;27693;50.506;30.832;2023-12-07T03:05:58;100671.17;;;-6.43;92.25
42003;BME280;27693;50.506;30.832;2023-12-07T03:07:03;100676.70;;;-6.53;91.52
42003;BME280;27693;50.506;30.832;2023-12-07T03:08:05;100676.70;;;-6.53;91.52
42003;BME280;27693;50.506;30.832;2023-12-07T03:09:07;100677.31;;;-6.59;91.17
42003;BME280;27693;50.506;30.832;2023-12-07T03:10:11;100678.06;;;-6.62;91.11
42003;BME280;27693;50.506;30.832;2023-12-07T03:11:14;100676.09;;;-6.69;91.20
42003;BME280;27693;50.506;30.832;2023-12-07T03:12:16;100678.57;;;-6.70;91.02
42003;BME280;27693;50.506;30.832;2023-12-07T03:13:19;100676.14;;;-6.67;90.91
42003;BME280;27693;50.506;30.832;2023-12-07T03:14:21;100677.87;;;-6.66;91.15
42003;BME280;27693;50.506;30.832;2023-12-07T03:15:23;100679.66;;;-6.64;91.39
42003;BME280;27693;50.506;30.832;2023-12-07T03:16:26;100681.02;;;-6.72;90.85
42003;BME280;27693;50.506;30.832;2023-12-07T03:17:29;100677.69;;;-6.71;91.47
42003;BME280;27693;50.506;30.832;2023-12-07T03:18:31;100681.71;;;-6.76;91.10
42003;BME280;27693;50.506;30.832;2023-12-07T03:19:40;100686.83;;;-6.75;91.71
42003;BME280;27693;50.506;30.832;2023-12-07T03:20:43;100686.08;;;-6.72;92.07
42003;BME280;27693;50.506;30.832;2023-12-07T03:21:47;100681.85;;;-6.73;91.50
42003;BME280;27693;50.506;30.832;2023-12-07T03:22:52;100685.23;;;-6.72;91.48
42003;BME280;27693;50.506;30.832;2023-12-07T03:23:55;100677.59;;;-6.74;91.97
42003;BME280;27693;50.506;30.832;2023-12-07T03:24:58;100690.05;;;-6.79;91.49
42003;BME280;27693;50.506;30.832;2023-12-07T03:26:00;100689.30;;;-6.76;91.82
42003;BME280;27693;50.506;30.832;2023-12-07T03:27:04;100694.50;;;-6.73;92.04
42003;BME280;27693;50.506;30.832;2023-12-07T03:28:08;100680.30;;;-6.69;92.74
42003;BME280;27693;50.506;30.832;2023-12-07T03:29:10;100694.23;;;-6.79;91.71
42003;BME280;27693;50.506;30.832;2023-12-07T03:30:13;100689.01;;;-6.84;91.70
42003;BME280;27693;50.506;30.832;2023-12-07T03:31:16;100686.58;;;-6.81;91.83
42003;BME280;27693;50.506;30.832;2023-12-07T03:32:18;100685.34;;;-6.91;91.66
42003;BME280;27693;50.506;30.832;2023-12-07T03:33:21;100683.31;;;-6.99;90.79
42003;BME280;27693;50.506;30.832;2023-12-07T03:34:24;100686.84;;;-6.96;91.54
42003;BME280;27693;50.506;30.832;2023-12-07T03:35:26;100690.47;;;-6.89;92.17
42003;BME280;27693;50.506;30.832;2023-12-07T03:36:32;100686.39;;;-6.85;92.00
42003;BME280;27693;50.506;30.832;2023-12-07T03:37:36;100687.22;;;-6.86;92.04
42003;BME280;27693;50.506;30.832;2023-12-07T03:38:39;100689.17;;;-6.79;92.42
42003;BME280;27693;50.506;30.832;2023-12-07T03:39:41;100695.86;;;-6.81;91.96
42003;BME280;27693;50.506;30.832;2023-12-07T03:40:44;100693.88;;;-6.88;91.85
42003;BME280;27693;50.506;30.832;2023-12-07T03:41:48;100692.00;;;-6.93;91.35
42003;BME280;27693;50.506;30.832;2023-12-07T03:42:55;100692.00;;;-6.93;91.92
42003;BME280;27693;50.506;30.832;2023-12-07T03:43:59;100686.28;;;-6.88;91.81
42003;BME280;27693;50.506;30.832;2023-12-07T03:45:02;100689.47;;;-6.93;91.68
42003;BME280;27693;50.506;30.832;2023-12-07T03:46:05;100697.45;;;-6.83;92.03
42003;BME280;27693;50.506;30.832;2023-12-07T03:47:09;100688.27;;;-6.81;92.56
42003;BME280;27693;50.506;30.832;2023-12-07T03:48:12;100690.66;;;-6.84;92.14
42003;BME280;27693;50.506;30.832;2023-12-07T03:49:14;100694.23;;;-6.79;92.64
42003;BME280;27693;50.506;30.832;2023-12-07T03:50:17;100691.04;;;-6.75;92.59
42003;BME280;27693;50.506;30.832;2023-12-07T03:51:20;100684.48;;;-6.70;92.62
42003;BME280;27693;50.506;30.832;2023-12-07T03:52:22;100686.35;;;-6.66;92.92
42003;BME280;27693;50.506;30.832;2023-12-07T03:53:26;100678.86;;;-6.63;92.39
42003;BME280;27693;50.506;30.832;2023-12-07T03:54:28;100681.63;;;-6.56;92.45
42003;BME280;27693;50.506;30.832;2023-12-07T03:55:31;100690.91;;;-6.57;91.86
42003;BME280;27693;50.506;30.832;2023-12-07T03:56:34;100687.68;;;-6.53;92.01
42003;BME280;27693;50.506;30.832;2023-12-07T03:57:36;100674.50;;;-6.67;90.74
42003;BME280;27693;50.506;30.832;2023-12-07T03:58:41;100686.83;;;-6.75;90.79
42003;BME280;27693;50.506;30.832;2023-12-07T03:59:44;100691.78;;;-6.78;91.06
42003;BME280;27693;50.506;30.832;2023-12-07T04:00:51;100688.37;;;-6.78;90.99
42003;BME280;27693;50.506;30.832;2023-12-07T04:01:55;100689.91;;;-6.82;90.82
42003;BME280;27693;50.506;30.832;2023-12-07T04:02:59;100693.43;;;-6.78;91.22
42003;BME280;27693;50.506;30.832;2023-12-07T04:04:03;100694.36;;;-6.76;91.19
42003;BME280;27693;50.506;30.832;2023-12-07T04:05:09;100685.73;;;-6.81;90.83
42003;BME280;27693;50.506;30.832;2023-12-07T04:06:12;100699.98;;;-6.83;90.98
42003;BME280;27693;50.506;30.832;2023-12-07T04:07:17;100690.16;;;-6.76;91.42
42003;BME280;27693;50.506;30.832;2023-12-07T04:08:20;100690.34;;;-6.71;91.62
42003;BME280;27693;50.506;30.832;2023-12-07T04:09:24;100680.36;;;-6.68;91.88
42003;BME280;27693;50.506;30.832;2023-12-07T04:10:26;100689.92;;;-6.61;91.97
42003;BME280;27693;50.506;30.832;2023-12-07T04:11:29;100692.56;;;-6.58;92.31
42003;BME280;27693;50.506;30.832;2023-12-07T04:12:34;100691.57;;;-6.61;91.48
42003;BME280;27693;50.506;30.832;2023-12-07T04:13:39;100693.48;;;-6.55;91.98
42003;BME280;27693;50.506;30.832;2023-12-07T04:14:42;100691.66;;;-6.60;91.17
42003;BME280;27693;50.506;30.832;2023-12-07T04:15:45;100684.96;;;-6.58;91.56
42003;BME280;27693;50.506;30.832;2023-12-07T04:16:48;100683.23;;;-6.59;91.48
42003;BME280;27693;50.506;30.832;2023-12-07T04:17:51;100685.77;;;-6.59;91.04
42003;BME280;27693;50.506;30.832;2023-12-07T04:18:55;100684.63;;;-6.67;90.34
42003;BME280;27693;50.506;30.832;2023-12-07T04:19:57;100682.89;;;-6.68;90.21
42003;BME280;27693;50.506;30.832;2023-12-07T04:21:01;100687.20;;;-6.65;90.56
42003;BME280;27693;50.506;30.832;2023-12-07T04:22:07;100684.86;;;-6.61;91.16
42003;BME280;27693;50.506;30.832;2023-12-07T04:23:09;100701.16;;;-6.75;89.88
42003;BME280;27693;50.506;30.832;2023-12-07T04:24:11;100693.19;;;-6.84;88.87
42003;BME280;27693;50.506;30.832;2023-12-07T04:25:14;100694.87;;;-6.85;87.94
42003;BME280;27693;50.506;30.832;2023-12-07T04:26:17;100697.45;;;-6.83;87.46
42003;BME280;27693;50.506;30.832;2023-12-07T04:27:19;100700.28;;;-6.97;86.60
42003;BME280;27693;50.506;30.832;2023-12-07T04:28:22;100683.27;;;-7.01;86.45
42003;BME280;27693;50.506;30.832;2023-12-07T04:29:24;100687.49;;;-7.00;86.19
42003;BME280;27693;50.506;30.832;2023-12-07T04:30:28;100693.48;;;-6.98;86.15
42003;BME280;27693;50.506;30.832;2023-12-07T04:31:30;100695.08;;;-7.00;86.44
42003;BME280;27693;50.506;30.832;2023-12-07T04:32:32;100687.49;;;-7.00;86.34
42003;BME280;27693;50.506;30.832;2023-12-07T04:33:35;100683.12;;;-7.04;85.93
42003;BME280;27693;50.506;30.832;2023-12-07T04:34:37;100686.99;;;-7.12;85.44
42003;BME280;27693;50.506;30.832;2023-12-07T04:35:40;100689.42;;;-7.15;85.55
42003;BME280;27693;50.506;30.832;2023-12-07T04:36:45;100695.52;;;-7.10;85.48
42003;BME280;27693;50.506;30.832;2023-12-07T04:37:47;100684.72;;;-7.06;85.41
42003;BME280;27693;50.506;30.832;2023-12-07T04:38:51;100681.03;;;-7.14;84.85
42003;BME280;27693;50.506;30.832;2023-12-07T04:39:54;100685.20;;;-7.15;84.72
42003;BME280;27693;50.506;30.832;2023-12-07T04:40:57;100684.36;;;-7.15;84.70
42003;BME280;27693;50.506;30.832;2023-12-07T04:41:59;100685.95;;;-7.17;84.70
42003;BME280;27693;50.506;30.832;2023-12-07T04:43:03;100690.02;;;-7.21;84.80
42003;BME280;27693;50.506;30.832;2023-12-07T04:44:05;100691.69;;;-7.22;84.65
42003;BME280;27693;50.506;30.832;2023-12-07T04:45:08;100690.07;;;-7.19;84.75
42003;BME280;27693;50.506;30.832;2023-12-07T04:46:12;100687.43;;;-7.23;84.58
42003;BME280;27693;50.506;30.832;2023-12-07T04:47:16;100692.48;;;-7.23;85.54
42003;BME280;27693;50.506;30.832;2023-12-07T04:48:18;100688.17;;;-7.25;86.16
42003;BME280;27693;50.506;30.832;2023-12-07T04:49:21;100694.13;;;-7.23;87.18
42003;BME280;27693;50.506;30.832;2023-12-07T04:50:23;100693.39;;;-7.20;87.75
42003;BME280;27693;50.506;30.832;2023-12-07T04:51:25;100697.80;;;-7.16;88.60
42003;BME280;27693;50.506;30.832;2023-12-07T04:52:27;100689.27;;;-7.18;88.57
42003;BME280;27693;50.506;30.832;2023-12-07T04:53:31;100685.27;;;-7.13;89.17
42003;BME280;27693;50.506;30.832;2023-12-07T04:54:33;100686.34;;;-7.08;90.02
42003;BME280;27693;50.506;30.832;2023-12-07T04:55:35;100681.14;;;-7.11;89.35
42003;BME280;27693;50.506;30.832;2023-12-07T04:56:40;100681.14;;;-7.11;89.35
42003;BME280;27693;50.506;30.832;2023-12-07T04:57:42;100682.02;;;-7.11;89.61
42003;BME280;27693;50.506;30.832;2023-12-07T04:58:45;100684.27;;;-7.17;89.11
42003;BME280;27693;50.506;30.832;2023-12-07T04:59:47;100686.64;;;-7.22;88.95
42003;BME280;27693;50.506;30.832;2023-12-07T05:00:51;100688.34;;;-7.20;89.12
42003;BME280;27693;50.506;30.832;2023-12-07T05:01:53;100685.09;;;-7.18;89.54
42003;BME280;27693;50.506;30.832;2023-12-07T05:02:56;100685.80;;;-7.20;89.68
42003;BME280;27693;50.506;30.832;2023-12-07T05:03:58;100693.03;;;-7.30;88.58
42003;BME280;27693;50.506;30.832;2023-12-07T05:05:02;100691.63;;;-7.43;87.17
42003;BME280;27693;50.506;30.832;2023-12-07T05:06:04;100696.62;;;-7.44;86.79
42003;BME280;27693;50.506;30.832;2023-12-07T05:07:07;100695.04;;;-7.42;86.72
42003;BME280;27693;50.506;30.832;2023-12-07T05:08:10;100695.16;;;-7.39;86.53
42003;BME280;27693;50.506;30.832;2023-12-07T05:09:12;100693.05;;;-7.49;85.92
42003;BME280;27693;50.506;30.832;2023-12-07T05:10:14;100697.11;;;-7.53;86.28
42003;BME280;27693;50.506;30.832;2023-12-07T05:11:16;100693.58;;;-7.57;85.91
42003;BME280;27693;50.506;30.832;2023-12-07T05:12:19;100701.16;;;-7.57;86.52
42003;BME280;27693;50.506;30.832;2023-12-07T05:13:21;100701.16;;;-7.57;86.52
42003;BME280;27693;50.506;30.832;2023-12-07T05:14:24;100697.84;;;-7.56;87.79
42003;BME280;27693;50.506;30.832;2023-12-07T05:15:26;100702.22;;;-7.51;88.54
42003;BME280;27693;50.506;30.832;2023-12-07T05:16:29;100714.18;;;-7.47;89.37
42003;BME280;27693;50.506;30.832;2023-12-07T05:17:32;100701.69;;;-7.44;89.64
42003;BME280;27693;50.506;30.832;2023-12-07T05:18:34;100716.17;;;-7.40;90.10
42003;BME280;27693;50.506;30.832;2023-12-07T05:19:37;100706.74;;;-7.44;89.42
42003;BME280;27693;50.506;30.832;2023-12-07T05:20:40;100706.42;;;-7.52;89.14
42003;BME280;27693;50.506;30.832;2023-12-07T05:21:42;100711.13;;;-7.60;88.11
42003;BME280;27693;50.506;30.832;2023-12-07T05:22:44;100704.59;;;-7.55;89.40
42003;BME280;27693;50.506;30.832;2023-12-07T05:23:47;100702.75;;;-7.59;89.15
42003;BME280;27693;50.506;30.832;2023-12-07T05:24:50;100710.48;;;-7.56;89.78
42003;BME280;27693;50.506;30.832;2023-12-07T05:25:52;100705.13;;;-7.62;89.05
42003;BME280;27693;50.506;30.832;2023-12-07T05:26:56;100698.90;;;-7.70;89.01
42003;BME280;27693;50.506;30.832;2023-12-07T05:28:00;100702.48;;;-7.65;89.97
42003;BME280;27693;50.506;30.832;2023-12-07T05:29:04;100694.91;;;-7.65;90.08
42003;BME280;27693;50.506;30.832;2023-12-07T05:30:08;100703.42;;;-7.63;90.32